createdAt,value
2023-05-04T00:00:19.435Z,80.60
2023-05-04T00:02:22.341Z,81.32
2023-05-04T00:04:25.484Z,81.90
2023-05-04T00:06:28.334Z,81.54
2023-05-04T00:08:31.975Z,80.96
2023-05-04T00:10:34.818Z,79.90
2023-05-04T00:12:38.420Z,80.77
2023-05-04T00:14:41.456Z,81.46
2023-05-04T00:16:46.005Z,81.80
2023-05-04T00:18:48.956Z,81.00
2023-05-04T00:20:51.942Z,81.76
2023-05-04T00:22:54.882Z,82.74
2023-05-04T00:24:57.746Z,82.70
2023-05-04T00:27:00.734Z,83.47
2023-05-04T00:29:04.211Z,82.18
2023-05-04T00:31:07.103Z,83.08
2023-05-04T00:33:11.668Z,82.87
2023-05-04T00:35:14.737Z,83.39
2023-05-04T00:37:17.646Z,83.20
2023-05-04T00:39:20.751Z,82.99
2023-05-04T00:41:23.718Z,84.10
2023-05-04T00:43:27.076Z,84.14
2023-05-04T00:45:30.596Z,83.96
2023-05-04T00:47:33.645Z,85.05
2023-05-04T00:49:38.449Z,85.08
2023-05-04T00:51:41.917Z,84.79
2023-05-04T00:53:45.825Z,85.26
2023-05-04T00:55:48.789Z,84.49
2023-05-04T00:57:52.167Z,85.09
2023-05-04T00:59:54.998Z,84.79
2023-05-04T01:01:57.997Z,83.53
2023-05-04T01:04:01.362Z,83.96
2023-05-04T01:06:19.578Z,84.22
2023-05-04T01:08:27.977Z,86.03
2023-05-04T01:10:36.035Z,86.31
2023-05-04T01:12:43.052Z,86.21
2023-05-04T01:14:47.766Z,85.32
2023-05-04T01:16:55.530Z,85.54
2023-05-04T01:18:58.508Z,85.38
2023-05-04T01:21:02.653Z,84.04
2023-05-04T01:23:08.671Z,84.55
2023-05-04T01:25:12.260Z,84.64
2023-05-04T01:27:22.890Z,84.16
2023-05-04T01:29:32.268Z,84.78
2023-05-04T01:31:37.268Z,85.27
2023-05-04T01:33:40.597Z,86.04
2023-05-04T01:35:43.855Z,85.15
2023-05-04T01:37:46.755Z,85.84
2023-05-04T01:39:51.178Z,86.65
2023-05-04T01:41:54.057Z,86.13
2023-05-04T01:43:57.549Z,86.28
2023-05-04T01:46:02.453Z,86.37
2023-05-04T01:48:06.246Z,85.38
2023-05-04T01:50:09.692Z,84.81
2023-05-04T01:52:12.743Z,85.87
2023-05-04T01:54:15.848Z,86.37
2023-05-04T01:56:21.003Z,86.14
2023-05-04T01:58:24.091Z,85.13
2023-05-04T02:00:27.302Z,85.05
2023-05-04T02:02:30.174Z,84.40
2023-05-04T02:04:34.327Z,84.78
2023-05-04T02:06:37.210Z,84.72
2023-05-04T02:08:40.293Z,85.01
2023-05-04T02:10:43.635Z,84.94
2023-05-04T02:12:48.308Z,85.18
2023-05-04T02:14:51.328Z,85.82
2023-05-04T02:16:54.306Z,85.70
2023-05-04T02:18:57.224Z,86.43
2023-05-04T02:21:00.130Z,85.66
2023-05-04T02:23:03.049Z,84.44
2023-05-04T02:25:07.008Z,85.02
2023-05-04T02:27:10.110Z,85.77
2023-05-04T02:29:14.604Z,84.25
2023-05-04T02:31:17.667Z,84.00
2023-05-04T02:33:20.688Z,83.35
2023-05-04T02:35:24.237Z,83.82
2023-05-04T02:37:27.136Z,83.58
2023-05-04T02:39:29.914Z,84.56
2023-05-04T02:41:32.928Z,84.22
2023-05-04T02:43:35.884Z,83.73
2023-05-04T02:45:40.264Z,84.09
2023-05-04T02:47:43.202Z,83.88
2023-05-04T02:49:46.651Z,84.37
2023-05-04T02:51:49.506Z,84.38
2023-05-04T02:53:52.528Z,85.70
2023-05-04T02:55:55.392Z,87.16
2023-05-04T02:57:58.633Z,85.55
2023-05-04T03:00:01.732Z,85.83
2023-05-04T03:02:06.613Z,87.10
2023-05-04T03:04:09.482Z,85.31
2023-05-04T03:06:12.558Z,87.13
2023-05-04T03:08:16.107Z,85.50
2023-05-04T03:10:19.371Z,86.16
2023-05-04T03:12:22.332Z,85.95
2023-05-04T03:14:25.263Z,87.09
2023-05-04T03:16:28.408Z,86.84
2023-05-04T03:18:33.108Z,87.09
2023-05-04T03:20:36.899Z,87.16
2023-05-04T03:22:39.819Z,86.71
2023-05-04T03:24:43.257Z,87.33
2023-05-04T03:26:47.565Z,86.14
2023-05-04T03:28:51.158Z,87.06
2023-05-04T03:30:54.021Z,86.58
2023-05-04T03:32:57.825Z,86.90
2023-05-04T03:35:04.064Z,86.79
2023-05-04T03:37:08.454Z,86.21
2023-05-04T03:39:11.849Z,86.43
2023-05-04T03:41:14.728Z,86.68
2023-05-04T03:43:17.780Z,86.87
2023-05-04T03:45:22.429Z,86.50
2023-05-04T03:47:25.714Z,86.40
2023-05-04T03:49:28.832Z,85.89
2023-05-04T03:51:33.375Z,85.84
2023-05-04T03:53:37.299Z,86.20
2023-05-04T03:55:40.242Z,86.47
2023-05-04T03:57:43.181Z,88.28
2023-05-04T03:59:46.133Z,87.06
2023-05-04T04:01:50.114Z,86.54
2023-05-04T04:03:53.285Z,87.19
2023-05-04T04:05:56.979Z,87.40
2023-05-04T04:08:03.408Z,87.84
2023-05-04T04:10:07.543Z,86.18
2023-05-04T04:12:10.500Z,86.37
2023-05-04T04:14:13.735Z,85.77
2023-05-04T04:16:16.919Z,84.35
2023-05-04T04:18:20.087Z,84.13
2023-05-04T04:20:23.180Z,82.72
2023-05-04T04:22:26.741Z,80.92
2023-05-04T04:24:32.047Z,79.71
2023-05-04T04:26:35.503Z,80.17
2023-05-04T04:28:38.455Z,80.10
2023-05-04T04:30:41.975Z,77.97
2023-05-04T04:32:45.983Z,77.62
2023-05-04T04:34:49.019Z,78.38
2023-05-04T04:36:52.558Z,78.62
2023-05-04T04:38:55.622Z,78.19
2023-05-04T04:41:00.138Z,78.51
2023-05-04T04:43:03.138Z,78.57
2023-05-04T04:45:07.470Z,78.09
2023-05-04T04:47:10.478Z,78.85
2023-05-04T04:49:13.614Z,77.69
2023-05-04T04:51:16.747Z,76.90
2023-05-04T04:53:19.763Z,76.17
2023-05-04T04:55:26.151Z,77.13
2023-05-04T04:57:31.836Z,78.08
2023-05-04T04:59:34.962Z,77.54
2023-05-04T05:01:38.414Z,77.01
2023-05-04T05:03:41.226Z,77.94
2023-05-04T05:05:44.339Z,77.91
2023-05-04T05:07:47.169Z,76.76
2023-05-04T05:09:50.078Z,77.59
2023-05-04T05:11:52.998Z,78.54
2023-05-04T05:13:57.541Z,78.73
2023-05-04T05:16:00.545Z,77.48
2023-05-04T05:18:03.535Z,75.75
2023-05-04T05:20:11.734Z,78.09
2023-05-04T05:22:14.736Z,78.31
2023-05-04T05:24:17.573Z,77.78
2023-05-04T05:26:20.541Z,78.03
2023-05-04T05:28:23.408Z,78.70
2023-05-04T05:30:28.921Z,77.25
2023-05-04T05:32:31.968Z,75.47
2023-05-04T05:34:35.199Z,75.31
2023-05-04T05:36:38.065Z,76.22
2023-05-04T05:38:41.223Z,74.81
2023-05-04T05:40:44.133Z,76.26
2023-05-04T05:42:47.367Z,74.71
2023-05-04T05:44:50.463Z,72.74
2023-05-04T05:46:54.781Z,73.11
2023-05-04T05:48:57.939Z,68.87
2023-05-04T05:51:01.037Z,61.69
2023-05-04T05:53:03.949Z,65.54
2023-05-04T05:55:07.371Z,65.58
2023-05-04T05:57:10.230Z,55.61
2023-05-04T05:59:13.180Z,54.79
2023-05-04T06:01:16.210Z,58.43
2023-05-04T06:03:21.083Z,55.02
2023-05-04T06:05:24.207Z,55.26
2023-05-04T06:07:27.417Z,53.86
2023-05-04T06:09:30.298Z,52.22
2023-05-04T06:11:33.268Z,52.15
2023-05-04T06:13:36.238Z,52.95
2023-05-04T06:15:39.222Z,50.27
2023-05-04T06:17:42.251Z,49.48
2023-05-04T06:19:48.077Z,48.69
2023-05-04T06:21:52.441Z,47.94
2023-05-04T06:23:55.395Z,47.72
2023-05-04T06:25:58.486Z,48.75
2023-05-04T06:28:01.519Z,45.81
2023-05-04T06:30:05.796Z,47.37
2023-05-04T06:32:10.227Z,46.47
2023-05-04T06:34:13.414Z,46.40
2023-05-04T06:36:18.363Z,44.58
2023-05-04T06:38:21.988Z,45.93
2023-05-04T06:40:26.671Z,39.83
2023-05-04T06:42:31.832Z,40.95
2023-05-04T06:44:37.769Z,38.63
2023-05-04T06:46:40.814Z,38.90
2023-05-04T06:48:44.167Z,43.39
2023-05-04T06:50:47.678Z,41.75
2023-05-04T06:52:52.317Z,44.98
2023-05-04T06:54:55.196Z,38.82
2023-05-04T06:56:58.172Z,41.20
2023-05-04T06:59:01.193Z,38.48
2023-05-04T07:01:04.494Z,39.86
2023-05-04T07:03:07.616Z,35.19
2023-05-04T07:05:11.020Z,36.93
2023-05-04T07:07:13.814Z,33.86
2023-05-04T07:09:19.876Z,33.76
2023-05-04T07:11:22.822Z,35.13
2023-05-04T07:13:25.922Z,34.11
2023-05-04T07:15:28.717Z,35.19
2023-05-04T07:17:32.603Z,33.36
2023-05-04T07:19:35.725Z,34.59
2023-05-04T07:21:38.805Z,32.72
2023-05-04T07:23:41.834Z,33.49
2023-05-04T07:25:46.366Z,32.54
2023-05-04T07:27:49.263Z,32.51
2023-05-04T07:29:52.182Z,29.97
2023-05-04T07:31:55.158Z,29.31
2023-05-04T07:33:58.281Z,31.91
2023-05-04T07:36:01.152Z,30.22
2023-05-04T07:38:04.154Z,30.06
2023-05-04T07:40:08.381Z,30.82
2023-05-04T07:42:12.949Z,31.85
2023-05-04T07:44:16.404Z,32.73
2023-05-04T07:46:19.563Z,33.92
2023-05-04T07:48:24.609Z,31.75
2023-05-04T07:50:29.609Z,29.18
2023-05-04T07:52:32.592Z,31.07
2023-05-04T07:54:36.502Z,29.59
2023-05-04T07:56:39.394Z,31.33
2023-05-04T07:58:44.106Z,28.68
2023-05-04T08:00:46.993Z,28.07
2023-05-04T08:02:50.054Z,27.95
2023-05-04T08:04:53.012Z,28.29
2023-05-04T08:06:56.130Z,27.02
2023-05-04T08:08:58.993Z,29.22
2023-05-04T08:11:15.831Z,29.96
2023-05-04T08:13:22.882Z,30.69
2023-05-04T08:15:27.436Z,31.95
2023-05-04T08:17:30.449Z,28.43
2023-05-04T08:19:34.334Z,27.40
2023-05-04T08:21:37.250Z,29.79
2023-05-04T08:23:40.223Z,31.59
2023-05-04T08:25:43.280Z,32.01
2023-05-04T08:27:46.280Z,32.86
2023-05-04T08:29:49.418Z,32.40
2023-05-04T08:31:56.832Z,30.52
2023-05-04T08:33:59.710Z,29.22
2023-05-04T08:36:03.575Z,30.88
2023-05-04T08:38:06.934Z,29.80
2023-05-04T08:40:10.478Z,30.04
2023-05-04T08:42:13.336Z,31.48
2023-05-04T08:44:21.553Z,30.89
2023-05-04T08:46:25.048Z,30.68
2023-05-04T08:48:29.640Z,32.75
2023-05-04T08:50:34.099Z,29.84
2023-05-04T08:52:43.770Z,28.59
2023-05-04T08:54:47.565Z,29.61
2023-05-04T08:56:52.960Z,28.94
2023-05-04T08:59:02.093Z,29.57
2023-05-04T09:01:07.880Z,31.36
2023-05-04T09:03:12.809Z,31.23
2023-05-04T09:05:18.674Z,31.08
2023-05-04T09:07:22.571Z,31.51
2023-05-04T09:09:28.148Z,30.17
2023-05-04T09:11:31.078Z,30.55
2023-05-04T09:13:34.409Z,31.42
2023-05-04T09:15:38.219Z,31.78
2023-05-04T09:17:50.977Z,28.55
2023-05-04T09:20:01.452Z,30.77
2023-05-04T09:22:15.366Z,28.51
2023-05-04T09:24:27.258Z,30.01
2023-05-04T09:26:31.421Z,31.06
2023-05-04T09:28:36.031Z,29.44
2023-05-04T09:30:39.038Z,28.78
2023-05-04T09:32:46.665Z,28.12
2023-05-04T09:34:50.945Z,27.09
2023-05-04T09:37:02.060Z,28.77
2023-05-04T09:39:13.303Z,29.15
2023-05-04T09:41:16.327Z,27.53
2023-05-04T09:43:19.371Z,30.26
2023-05-04T09:45:22.355Z,26.61
2023-05-04T09:47:33.788Z,28.64
2023-05-04T09:49:37.527Z,27.45
2023-05-04T09:51:40.630Z,30.69
2023-05-04T09:53:44.208Z,29.07
2023-05-04T09:55:51.822Z,28.34
2023-05-04T09:57:54.746Z,28.50
2023-05-04T09:59:57.979Z,30.45
2023-05-04T10:02:07.635Z,27.65
2023-05-04T10:04:17.524Z,28.37
2023-05-04T10:06:22.248Z,27.95
2023-05-04T10:08:26.687Z,28.37
2023-05-04T10:10:29.521Z,30.01
2023-05-04T10:12:34.088Z,27.21
2023-05-04T10:14:37.278Z,25.95
2023-05-04T10:16:51.865Z,27.80
2023-05-04T10:19:23.173Z,29.13
2023-05-04T10:21:33.463Z,28.13
2023-05-04T10:23:56.527Z,29.26
2023-05-04T10:26:24.194Z,28.66
2023-05-04T10:28:43.644Z,28.47
2023-05-04T10:30:46.881Z,27.78
2023-05-04T10:32:56.283Z,28.07
2023-05-04T10:35:06.610Z,27.47
2023-05-04T10:37:17.933Z,29.41
2023-05-04T10:39:21.974Z,28.13
2023-05-04T10:41:24.875Z,27.20
2023-05-04T10:43:29.475Z,27.31
2023-05-04T10:45:38.186Z,27.22
2023-05-04T10:47:42.328Z,28.30
2023-05-04T10:49:45.291Z,29.71
2023-05-04T10:51:49.564Z,27.31
2023-05-04T10:53:53.157Z,28.64
2023-05-04T10:55:56.275Z,27.95
2023-05-04T10:57:59.272Z,27.39
2023-05-04T11:00:02.475Z,28.22
2023-05-04T11:02:07.913Z,28.65
2023-05-04T11:04:18.503Z,27.53
2023-05-04T11:06:24.346Z,27.65
2023-05-04T11:08:28.256Z,28.90
2023-05-04T11:10:31.525Z,26.97
2023-05-04T11:12:35.304Z,26.69
2023-05-04T11:14:43.141Z,28.02
2023-05-04T11:16:46.931Z,27.31
2023-05-04T11:18:51.757Z,26.17
2023-05-04T11:20:56.404Z,26.10
2023-05-04T11:22:59.313Z,26.14
2023-05-04T11:25:02.334Z,26.41
2023-05-04T11:27:05.305Z,27.54
2023-05-04T11:29:13.900Z,28.50
2023-05-04T11:31:18.065Z,27.43
2023-05-04T11:33:21.006Z,27.47
2023-05-04T11:35:25.510Z,25.85
2023-05-04T11:37:29.686Z,26.52
2023-05-04T11:39:33.881Z,26.35
2023-05-04T11:41:37.592Z,25.89
2023-05-04T11:43:42.741Z,27.83
2023-05-04T11:45:49.041Z,28.82
2023-05-04T11:47:52.776Z,26.92
2023-05-04T11:49:56.617Z,26.93
2023-05-04T11:52:07.708Z,27.13
2023-05-04T11:54:21.069Z,26.45
2023-05-04T11:56:24.567Z,27.05
2023-05-04T11:58:27.782Z,27.28
2023-05-04T12:00:39.866Z,27.91
2023-05-04T12:02:43.424Z,28.79
2023-05-04T12:04:46.597Z,25.17
2023-05-04T12:06:50.376Z,27.07
2023-05-04T12:09:02.536Z,27.98
2023-05-04T12:11:26.130Z,26.07
2023-05-04T12:13:29.277Z,26.78
2023-05-04T12:15:33.339Z,25.41
2023-05-04T12:17:44.394Z,25.39
2023-05-04T12:19:48.575Z,25.69
2023-05-04T12:21:52.670Z,25.92
2023-05-04T12:24:00.164Z,25.51
2023-05-04T12:26:03.077Z,25.13
2023-05-04T12:28:06.124Z,26.50
2023-05-04T12:30:10.357Z,25.92
2023-05-04T12:32:13.707Z,27.10
2023-05-04T12:34:16.810Z,26.71
2023-05-04T12:36:19.779Z,26.32
2023-05-04T12:38:22.767Z,28.23
2023-05-04T12:40:28.894Z,27.57
2023-05-04T12:42:32.297Z,29.18
2023-05-04T12:44:35.345Z,30.30
2023-05-04T12:46:38.426Z,30.24
2023-05-04T12:48:41.397Z,28.97
2023-05-04T12:50:44.844Z,29.57
2023-05-04T12:52:47.856Z,27.67
2023-05-04T12:54:50.870Z,29.28
2023-05-04T12:56:55.287Z,29.20
2023-05-04T12:58:58.332Z,29.17
2023-05-04T13:01:01.369Z,26.32
2023-05-04T13:03:04.956Z,26.43
2023-05-04T13:05:09.063Z,25.94
2023-05-04T13:07:14.984Z,26.96
2023-05-04T13:09:17.997Z,24.95
2023-05-04T13:11:21.081Z,27.92
2023-05-04T13:13:28.956Z,27.05
2023-05-04T13:15:32.911Z,27.74
2023-05-04T13:17:36.006Z,25.29
2023-05-04T13:19:38.859Z,26.51
2023-05-04T13:21:41.843Z,27.32
2023-05-04T13:23:44.961Z,25.52
2023-05-04T13:25:48.029Z,26.39
2023-05-04T13:27:51.098Z,25.91
2023-05-04T13:29:55.656Z,27.85
2023-05-04T13:31:59.869Z,27.48
2023-05-04T13:34:02.850Z,29.00
2023-05-04T13:36:06.996Z,27.98
2023-05-04T13:38:10.007Z,28.44
2023-05-04T13:40:14.270Z,28.18
2023-05-04T13:42:17.547Z,27.34
2023-05-04T13:44:20.612Z,26.08
2023-05-04T13:46:25.146Z,27.72
2023-05-04T13:48:28.290Z,27.01
2023-05-04T13:50:32.270Z,27.60
2023-05-04T13:52:35.398Z,26.93
2023-05-04T13:54:39.066Z,27.29
2023-05-04T13:56:42.602Z,27.12
2023-05-04T13:58:45.493Z,26.08
2023-05-04T14:00:48.351Z,26.70
2023-05-04T14:02:53.051Z,26.70
2023-05-04T14:04:56.051Z,26.16
2023-05-04T14:06:59.030Z,27.08
2023-05-04T14:09:01.972Z,26.74
2023-05-04T14:11:05.043Z,25.42
2023-05-04T14:13:08.016Z,24.35
2023-05-04T14:15:11.798Z,27.19
2023-05-04T14:17:14.629Z,27.91
2023-05-04T14:19:19.345Z,27.44
2023-05-04T14:21:22.284Z,27.67
2023-05-04T14:23:25.115Z,28.46
2023-05-04T14:25:28.095Z,26.10
2023-05-04T14:27:34.882Z,26.04
2023-05-04T14:29:37.953Z,27.15
2023-05-04T14:31:41.456Z,28.40
2023-05-04T14:33:44.636Z,28.50
2023-05-04T14:35:49.035Z,26.00
2023-05-04T14:37:51.935Z,26.01
2023-05-04T14:39:54.906Z,28.20
2023-05-04T14:41:58.304Z,27.88
2023-05-04T14:44:01.813Z,29.12
2023-05-04T14:46:05.015Z,29.43
2023-05-04T14:48:08.924Z,28.52
2023-05-04T14:50:13.500Z,29.19
2023-05-04T14:52:17.957Z,29.08
2023-05-04T14:54:21.411Z,28.90
2023-05-04T14:56:24.337Z,29.05
2023-05-04T14:58:29.031Z,27.67
2023-05-04T15:00:32.198Z,28.14
2023-05-04T15:02:36.143Z,27.53
2023-05-04T15:04:39.322Z,31.67
2023-05-04T15:06:42.152Z,28.75
2023-05-04T15:08:46.629Z,28.87
2023-05-04T15:10:49.629Z,28.49
2023-05-04T15:12:53.506Z,27.53
2023-05-04T15:14:56.426Z,28.43
2023-05-04T15:16:59.379Z,27.50
2023-05-04T15:19:02.345Z,27.62
2023-05-04T15:21:05.312Z,28.23
2023-05-04T15:23:10.986Z,26.76
2023-05-04T15:25:16.028Z,28.94
2023-05-04T15:27:18.969Z,28.58
2023-05-04T15:29:22.237Z,27.62
2023-05-04T15:31:25.135Z,29.61
2023-05-04T15:33:28.305Z,30.02
2023-05-04T15:35:31.428Z,30.65
2023-05-04T15:37:35.002Z,31.43
2023-05-04T15:39:38.163Z,30.04
2023-05-04T15:41:43.245Z,28.87
2023-05-04T15:43:46.573Z,30.37
2023-05-04T15:45:52.353Z,29.43
2023-05-04T15:47:55.377Z,31.90
2023-05-04T15:49:58.344Z,33.01
2023-05-04T15:52:01.195Z,31.43
2023-05-04T15:54:04.408Z,30.27
2023-05-04T15:56:08.013Z,30.07
2023-05-04T15:58:12.853Z,31.63
2023-05-04T16:00:16.520Z,31.71
2023-05-04T16:02:20.148Z,30.38
2023-05-04T16:04:23.100Z,32.19
2023-05-04T16:06:26.236Z,31.60
2023-05-04T16:08:29.205Z,30.92
2023-05-04T16:10:32.539Z,30.97
2023-05-04T16:12:35.403Z,30.59
2023-05-04T16:14:40.572Z,32.29
2023-05-04T16:16:43.518Z,31.64
2023-05-04T16:18:46.545Z,34.98
2023-05-04T16:20:49.728Z,30.19
2023-05-04T16:22:52.656Z,30.80
2023-05-04T16:24:55.562Z,30.52
2023-05-04T16:26:59.644Z,31.72
2023-05-04T16:29:02.705Z,31.77
2023-05-04T16:31:10.341Z,36.49
2023-05-04T16:33:15.176Z,36.91
2023-05-04T16:35:18.559Z,37.38
2023-05-04T16:37:21.630Z,36.25
2023-05-04T16:39:30.411Z,36.65
2023-05-04T16:41:33.484Z,39.64
2023-05-04T16:43:36.592Z,38.32
2023-05-04T16:45:39.509Z,37.97
2023-05-04T16:47:44.808Z,37.64
2023-05-04T16:49:47.709Z,37.52
2023-05-04T16:51:50.717Z,37.74
2023-05-04T16:53:53.630Z,37.49
2023-05-04T16:55:56.724Z,37.67
2023-05-04T16:57:59.800Z,37.93
2023-05-04T17:00:02.768Z,41.77
2023-05-04T17:02:08.892Z,43.78
2023-05-04T17:04:13.906Z,47.82
2023-05-04T17:06:16.810Z,50.49
2023-05-04T17:08:19.943Z,48.67
2023-05-04T17:10:22.848Z,48.15
2023-05-04T17:12:25.988Z,48.43
2023-05-04T17:14:29.211Z,49.38
2023-05-04T17:16:32.181Z,49.90
2023-05-04T17:18:35.261Z,47.95
2023-05-04T17:20:39.763Z,49.52
2023-05-04T17:22:43.258Z,49.74
2023-05-04T17:24:46.269Z,46.82
2023-05-04T17:26:49.328Z,44.91
2023-05-04T17:28:52.569Z,46.54
2023-05-04T17:30:55.860Z,45.84
2023-05-04T17:32:58.901Z,45.96
2023-05-04T17:35:11.847Z,48.90
2023-05-04T17:37:27.000Z,49.82
2023-05-04T17:39:33.154Z,48.22
2023-05-04T17:41:36.244Z,47.82
2023-05-04T17:43:39.688Z,47.30
2023-05-04T17:45:42.679Z,46.57
2023-05-04T17:47:46.669Z,46.93
2023-05-04T17:49:49.667Z,47.57
2023-05-04T17:51:53.478Z,47.89
2023-05-04T17:53:57.946Z,46.97
2023-05-04T17:56:00.892Z,48.90
2023-05-04T17:58:04.248Z,47.77
2023-05-04T18:00:09.061Z,47.70
2023-05-04T18:02:12.459Z,48.68
2023-05-04T18:04:15.544Z,49.29
2023-05-04T18:06:18.667Z,48.43
2023-05-04T18:08:21.541Z,46.53
2023-05-04T18:10:26.252Z,47.11
2023-05-04T18:12:29.305Z,49.91
2023-05-04T18:14:32.239Z,51.60
2023-05-04T18:16:37.947Z,51.67
2023-05-04T18:18:41.024Z,52.68
2023-05-04T18:20:43.897Z,52.08
2023-05-04T18:22:47.128Z,53.03
2023-05-04T18:24:50.084Z,51.67
2023-05-04T18:26:55.244Z,52.48
2023-05-04T18:29:07.445Z,54.85
2023-05-04T18:31:20.662Z,55.48
2023-05-04T18:33:23.674Z,53.88
2023-05-04T18:35:26.703Z,52.83
2023-05-04T18:37:32.840Z,53.33
2023-05-04T18:39:36.723Z,54.48
2023-05-04T18:41:40.084Z,56.66
2023-05-04T18:43:56.099Z,57.74
2023-05-04T18:45:59.255Z,58.47
2023-05-04T18:48:02.187Z,61.36
2023-05-04T18:50:05.910Z,57.75
2023-05-04T18:52:09.026Z,60.99
2023-05-04T18:54:12.160Z,57.73
2023-05-04T18:56:15.078Z,61.41
2023-05-04T18:58:17.846Z,58.76
2023-05-04T19:00:23.688Z,57.64
2023-05-04T19:02:27.190Z,58.35
2023-05-04T19:04:30.285Z,57.17
2023-05-04T19:06:33.246Z,57.10
2023-05-04T19:08:36.521Z,57.33
2023-05-04T19:10:39.254Z,56.33
2023-05-04T19:12:42.223Z,55.90
2023-05-04T19:14:45.118Z,55.93
2023-05-04T19:16:49.488Z,57.04
2023-05-04T19:18:52.808Z,56.67
2023-05-04T19:20:55.829Z,56.94
2023-05-04T19:22:58.931Z,58.35
2023-05-04T19:25:01.868Z,59.00
2023-05-04T19:27:04.899Z,60.64
2023-05-04T19:29:07.875Z,62.52
2023-05-04T19:31:10.994Z,63.06
2023-05-04T19:33:15.859Z,62.97
2023-05-04T19:35:19.328Z,63.74
2023-05-04T19:37:22.245Z,63.87
2023-05-04T19:39:25.498Z,64.70
2023-05-04T19:41:28.555Z,64.66
2023-05-04T19:43:32.939Z,64.54
2023-05-04T19:45:36.257Z,65.10
2023-05-04T19:47:39.539Z,65.32
2023-05-04T19:49:46.631Z,66.11
2023-05-04T19:51:49.524Z,66.29
2023-05-04T19:53:52.472Z,65.18
2023-05-04T19:55:55.427Z,65.26
2023-05-04T19:57:58.407Z,65.38
2023-05-04T20:00:02.171Z,65.32
2023-05-04T20:02:14.616Z,64.92
2023-05-04T20:04:19.207Z,65.34
2023-05-04T20:06:23.706Z,64.67
2023-05-04T20:08:27.198Z,64.97
2023-05-04T20:10:30.298Z,66.17
2023-05-04T20:12:33.315Z,66.76
2023-05-04T20:14:36.465Z,67.58
2023-05-04T20:16:39.374Z,67.29
2023-05-04T20:18:42.363Z,68.70
2023-05-04T20:20:45.387Z,68.84
2023-05-04T20:22:52.524Z,68.74
2023-05-04T20:24:55.925Z,68.03
2023-05-04T20:26:58.833Z,67.66
2023-05-04T20:29:01.754Z,67.35
2023-05-04T20:31:04.749Z,68.37
2023-05-04T20:33:07.742Z,66.86
2023-05-04T20:35:10.752Z,67.52
2023-05-04T20:37:13.821Z,67.14
2023-05-04T20:39:18.325Z,66.64
2023-05-04T20:41:22.203Z,66.29
2023-05-04T20:43:25.247Z,66.94
2023-05-04T20:45:29.391Z,67.92
2023-05-04T20:47:32.372Z,67.22
2023-05-04T20:49:35.248Z,66.39
2023-05-04T20:51:38.282Z,67.76
2023-05-04T20:53:41.719Z,69.18
2023-05-04T20:55:46.154Z,68.31
2023-05-04T20:57:49.977Z,67.57
2023-05-04T20:59:52.970Z,67.45
2023-05-04T21:01:56.622Z,65.90
2023-05-04T21:03:59.977Z,65.00
2023-05-04T21:06:03.455Z,64.51
2023-05-04T21:08:06.400Z,65.74
2023-05-04T21:10:10.407Z,66.75
2023-05-04T21:12:14.833Z,66.63
2023-05-04T21:14:17.879Z,67.66
2023-05-04T21:16:20.763Z,68.14
2023-05-04T21:18:23.703Z,68.89
2023-05-04T21:20:26.901Z,69.73
2023-05-04T21:22:29.824Z,69.34
2023-05-04T21:24:33.434Z,69.14
2023-05-04T21:26:36.606Z,67.52
2023-05-04T21:28:41.115Z,67.13
2023-05-04T21:30:44.055Z,69.44
2023-05-04T21:32:47.298Z,70.38
2023-05-04T21:34:53.364Z,71.22
2023-05-04T21:36:56.414Z,72.08
2023-05-04T21:38:59.517Z,72.13
2023-05-04T21:41:11.000Z,72.31
2023-05-04T21:43:13.955Z,70.54
2023-05-04T21:45:18.360Z,71.05
2023-05-04T21:47:21.366Z,71.42
2023-05-04T21:49:24.735Z,70.03
2023-05-04T21:51:29.092Z,69.02
2023-05-04T21:53:34.123Z,69.83
2023-05-04T21:55:36.968Z,69.51
2023-05-04T21:57:40.125Z,70.14
2023-05-04T21:59:43.293Z,67.46
2023-05-04T22:01:47.757Z,66.45
2023-05-04T22:03:50.869Z,67.65
2023-05-04T22:05:54.761Z,67.56
2023-05-04T22:07:57.836Z,68.89
2023-05-04T22:10:00.701Z,69.34
2023-05-04T22:12:03.755Z,68.78
2023-05-04T22:14:06.750Z,69.51
2023-05-04T22:16:09.716Z,70.13
2023-05-04T22:18:14.557Z,70.23
2023-05-04T22:20:17.709Z,71.33
2023-05-04T22:22:20.894Z,71.77
2023-05-04T22:24:23.781Z,72.23
2023-05-04T22:26:27.084Z,70.51
2023-05-04T22:28:29.876Z,72.32
2023-05-04T22:30:32.772Z,71.27
2023-05-04T22:32:35.693Z,72.03
2023-05-04T22:34:40.073Z,74.23
2023-05-04T22:36:43.280Z,73.01
2023-05-04T22:38:46.689Z,74.22
2023-05-04T22:40:50.337Z,72.65
2023-05-04T22:42:53.331Z,72.86
2023-05-04T22:44:56.350Z,74.01
2023-05-04T22:46:59.303Z,76.05
2023-05-04T22:49:02.141Z,74.14
2023-05-04T22:51:06.711Z,75.94
2023-05-04T22:53:10.647Z,77.05
2023-05-04T22:55:13.639Z,76.61
2023-05-04T22:57:16.875Z,76.05
2023-05-04T22:59:19.777Z,74.73
2023-05-04T23:01:22.757Z,75.20
2023-05-04T23:03:25.824Z,75.40
2023-05-04T23:05:28.940Z,75.58
2023-05-04T23:07:33.387Z,76.42
2023-05-04T23:09:42.636Z,77.65
2023-05-04T23:11:45.927Z,77.32
2023-05-04T23:13:48.906Z,78.26
2023-05-04T23:15:52.158Z,78.45
2023-05-04T23:17:55.332Z,77.45
2023-05-04T23:19:58.376Z,78.06
2023-05-04T23:22:01.486Z,77.17
2023-05-04T23:24:06.536Z,78.83
2023-05-04T23:26:09.455Z,79.06
2023-05-04T23:28:12.575Z,79.43
2023-05-04T23:30:16.027Z,78.67
2023-05-04T23:32:18.897Z,79.64
2023-05-04T23:34:28.128Z,79.35
2023-05-04T23:36:31.101Z,79.55
2023-05-04T23:38:34.040Z,79.83
2023-05-04T23:40:38.482Z,79.25
2023-05-04T23:42:41.374Z,80.74
2023-05-04T23:44:44.314Z,80.02
2023-05-04T23:46:47.399Z,80.75
2023-05-04T23:48:50.369Z,80.32
2023-05-04T23:50:53.910Z,79.85
2023-05-04T23:52:56.798Z,79.62
2023-05-04T23:54:59.664Z,80.03
2023-05-04T23:57:04.159Z,79.47
2023-05-04T23:59:07.274Z,79.81
